Startpagina
METAR-TAF:

METAR-TAF

Vliegvelden :

Internationale luchthaven Tocumen

Tocumen, Panama

breedte: 09-03N, lengte: 079-22W, hoogte: 45 m

Actueel weer

Dit bericht is 13 minuten geleden gemaakt, om 21:00 UTC
Wind 14 kt uit het noordnoordwesten
Temperatuur 31°C
Vochtigheid 38%
Druk 1010 hPa
Zicht 10 km of meer
Verspreide wolken op 1800 ft

METAR: MPTO 232100Z 33014KT 9999 SCT018 31/15 Q1010 NOSIG

Tijdstip: 16:13 (21:13 UTC)

Verwachting

Dit bericht is 4 uur en het 13 minuten geleden gemaakt, om 17:00 UTC
Verwachting geldig van 23 om 18 UTC tot 24 om 24 UTC
Wind 6 kt uit het noordwesten
Zicht 10 km of meer
Weinig wolken op 2000 ft
Wijzigt naar
van 23 om 19 UTC tot 23 om 23 UTC
Wind 18 kt uit het noorden
Wijzigt naar
van 24 om 05 UTC tot 24 om 09 UTC
Zicht 10 km of meer
geen wolken onder 1500 m en geen cumulonimbus
Tijdelijke
van 24 om 10 UTC tot 24 om 12 UTC
Wind 2 kt uit variabele richting

TAF: MPTO 231700Z 2318/2424 32006KT 9999 FEW020 BECMG 2319/2323 01018KT BECMG 2405/2409 CAVOK TEMPO 2410/2412 VRB02KT

Waarnemingen en weersverwachtingen van meer dan 4000 vliegvelden (METAR en TAF).

De beschikbare stations zijn de gele en rode punten op de kaart.

Ga met uw muis naar het station om de naam te zien.

Klik dan om waarnemingen en weersverwachtingen te zien.

kaart wijzigen: klik op de groene knoppen met een zwart kruis om in te zoomen, op de groene knop met een streepje om uit te zoomen of op de groene pijlen voor aangrenzende kaarten.


METAR-TAF: